createdAt,value
2019-02-07T00:00:48.887Z,-0.30
2019-02-07T00:03:17.993Z,-0.30
2019-02-07T00:05:46.989Z,-0.30
2019-02-07T00:08:15.964Z,-0.40
2019-02-07T00:10:44.857Z,-0.30
2019-02-07T00:13:13.823Z,-0.40
2019-02-07T00:15:43.072Z,-0.60
2019-02-07T00:18:12.077Z,-0.60
2019-02-07T00:20:41.265Z,-0.60
2019-02-07T00:23:10.343Z,-0.50
2019-02-07T00:25:39.383Z,-0.50
2019-02-07T00:28:08.419Z,-0.50
2019-02-07T00:30:38.668Z,-0.60
2019-02-07T00:33:07.684Z,-0.60
2019-02-07T00:35:36.715Z,-0.60
2019-02-07T00:38:05.774Z,-0.60
2019-02-07T00:40:34.865Z,-0.50
2019-02-07T00:43:04.222Z,-0.60
2019-02-07T00:45:33.200Z,-0.40
2019-02-07T00:48:02.189Z,-0.30
2019-02-07T00:50:31.300Z,-0.20
2019-02-07T00:53:00.385Z,-0.30
2019-02-07T00:55:29.713Z,-0.50
2019-02-07T00:57:59.565Z,-0.70
2019-02-07T01:00:28.813Z,-0.60
2019-02-07T01:02:57.923Z,-0.60
2019-02-07T01:05:27.006Z,-0.60
2019-02-07T01:07:55.974Z,-0.60
2019-02-07T01:10:25.542Z,-0.70
2019-02-07T01:12:54.546Z,-0.60
2019-02-07T01:15:23.809Z,-0.40
2019-02-07T01:17:52.812Z,-0.30
2019-02-07T01:20:21.824Z,-0.30
2019-02-07T01:22:50.792Z,-0.50
2019-02-07T01:25:20.728Z,-0.50
2019-02-07T01:27:49.982Z,-0.60
2019-02-07T01:30:20.537Z,-0.60
2019-02-07T01:32:49.529Z,-0.60
2019-02-07T01:35:18.615Z,-0.60
2019-02-07T01:37:49.812Z,-0.60
2019-02-07T01:40:20.127Z,-0.70
2019-02-07T01:42:49.093Z,-0.60
2019-02-07T01:45:19.784Z,-0.60
2019-02-07T01:47:48.933Z,-0.60
2019-02-07T01:50:19.512Z,-0.70
2019-02-07T01:52:49.036Z,-0.70
2019-02-07T01:55:18.013Z,-0.70
2019-02-07T01:57:47.024Z,-0.70
2019-02-07T02:00:17.237Z,-0.80
2019-02-07T02:02:46.247Z,-0.70
2019-02-07T02:05:16.481Z,-0.70
2019-02-07T02:07:45.840Z,-0.60
2019-02-07T02:10:22.052Z,-0.50
2019-02-07T02:12:51.080Z,-0.50
2019-02-07T02:15:24.631Z,-0.40
2019-02-07T02:17:52.188Z,-0.50
2019-02-07T02:20:22.296Z,-0.50
2019-02-07T02:22:53.407Z,-0.70
2019-02-07T02:25:22.629Z,-0.70
2019-02-07T02:27:51.777Z,-0.80
2019-02-07T02:30:27.305Z,-0.70
2019-02-07T02:32:56.358Z,-0.80
2019-02-07T02:35:25.245Z,-0.90
2019-02-07T02:37:54.289Z,-0.90
2019-02-07T02:40:23.256Z,-0.90
2019-02-07T02:42:52.244Z,-0.90
2019-02-07T02:45:21.275Z,-0.90
2019-02-07T02:47:50.452Z,-0.90
2019-02-07T02:50:19.736Z,-0.90
2019-02-07T02:52:48.858Z,-0.80
2019-02-07T02:55:29.098Z,-0.80
2019-02-07T02:57:58.336Z,-0.70
2019-02-07T03:00:36.558Z,-0.80
2019-02-07T03:03:37.420Z,-1.10
2019-02-07T03:06:14.545Z,-1.10
2019-02-07T03:09:08.434Z,-1.00
2019-02-07T03:11:55.058Z,-0.90
2019-02-07T03:14:47.702Z,-0.70
2019-02-07T03:17:54.845Z,-0.70
2019-02-07T03:21:02.025Z,-0.70
2019-02-07T03:24:09.220Z,-0.80
2019-02-07T03:27:16.350Z,-0.80
2019-02-07T03:33:38.523Z,-0.80
2019-02-07T03:36:45.659Z,-1.00
2019-02-07T03:39:46.191Z,-1.10
2019-02-07T03:42:33.134Z,-1.00
2019-02-07T03:45:13.433Z,-1.20
2019-02-07T03:48:00.813Z,-1.40
2019-02-07T03:50:53.214Z,-1.30
2019-02-07T03:53:44.086Z,-1.30
2019-02-07T03:56:26.734Z,-1.60
2019-02-07T03:59:14.670Z,-1.80
2019-02-07T04:02:05.733Z,-1.60
2019-02-07T04:04:53.736Z,-1.50
2019-02-07T04:07:35.913Z,-1.60
2019-02-07T04:10:25.176Z,-1.80
2019-02-07T04:13:05.089Z,-1.80
2019-02-07T04:15:53.057Z,-2.00
2019-02-07T04:18:59.589Z,-1.80
2019-02-07T04:21:47.637Z,-1.70
2019-02-07T04:24:38.616Z,-2.00
2019-02-07T04:27:41.709Z,-2.00
2019-02-07T04:30:28.357Z,-2.10
2019-02-07T04:33:07.634Z,-1.80
2019-02-07T04:35:51.316Z,-1.50
2019-02-07T04:38:43.599Z,-1.80
2019-02-07T04:41:40.684Z,-1.60
2019-02-07T04:44:27.530Z,-1.80
2019-02-07T04:47:14.649Z,-1.70
2019-02-07T04:49:54.316Z,-1.80
2019-02-07T04:52:40.902Z,-1.50
2019-02-07T04:55:31.958Z,-1.40
2019-02-07T04:58:19.018Z,-1.20
2019-02-07T05:01:13.409Z,-1.50
2019-02-07T05:04:10.187Z,-1.50
2019-02-07T05:07:01.247Z,-1.50
2019-02-07T05:09:49.135Z,-1.80
2019-02-07T05:12:36.140Z,-1.70
2019-02-07T05:15:26.162Z,-1.60
2019-02-07T05:18:08.581Z,-1.80
2019-02-07T05:20:57.004Z,-1.90
2019-02-07T05:23:36.669Z,-1.70
2019-02-07T05:26:23.011Z,-1.50
2019-02-07T05:29:18.830Z,-1.40
2019-02-07T05:32:06.781Z,-1.30
2019-02-07T05:34:53.788Z,-1.40
2019-02-07T05:37:54.204Z,-1.40
2019-02-07T05:40:37.680Z,-1.40
2019-02-07T05:43:28.550Z,-1.60
2019-02-07T05:46:05.715Z,-1.70
2019-02-07T05:49:09.180Z,-1.50
2019-02-07T05:52:01.938Z,-1.30
2019-02-07T05:54:55.757Z,-1.40
2019-02-07T05:57:52.957Z,-1.50
2019-02-07T06:00:39.060Z,-1.70
2019-02-07T06:03:23.560Z,-1.60
2019-02-07T06:06:11.687Z,-1.60
2019-02-07T06:08:52.633Z,-1.60
2019-02-07T06:11:46.973Z,-1.60
2019-02-07T06:14:33.685Z,-1.60
2019-02-07T06:17:28.054Z,-1.50
2019-02-07T06:20:14.881Z,-1.50
2019-02-07T06:23:03.140Z,-1.40
2019-02-07T06:25:45.161Z,-1.60
2019-02-07T06:28:33.565Z,-1.70
2019-02-07T06:31:12.832Z,-1.60
2019-02-07T06:33:59.425Z,-1.60
2019-02-07T06:36:53.668Z,-1.40
2019-02-07T06:39:41.093Z,-1.50
2019-02-07T06:42:41.385Z,-1.60
2019-02-07T06:45:25.856Z,-1.50
2019-02-07T06:48:29.435Z,-1.30
2019-02-07T06:51:16.329Z,-1.20
2019-02-07T06:54:03.070Z,-1.10
2019-02-07T06:56:49.976Z,-1.10
2019-02-07T06:59:30.112Z,-1.00
2019-02-07T07:02:17.011Z,-0.90
2019-02-07T07:05:11.222Z,-1.00
2019-02-07T07:08:02.092Z,-1.20
2019-02-07T07:10:49.058Z,-1.20
2019-02-07T07:13:34.242Z,-1.20
2019-02-07T07:16:31.047Z,-1.00
2019-02-07T07:19:07.912Z,-0.90
2019-02-07T07:21:55.937Z,-1.10
2019-02-07T07:24:56.904Z,-1.10
2019-02-07T07:27:44.949Z,-1.00
2019-02-07T07:30:42.951Z,-0.80
2019-02-07T07:33:30.058Z,-0.60
2019-02-07T07:36:17.128Z,-0.50
2019-02-07T07:39:04.079Z,-0.40
2019-02-07T07:41:52.151Z,-0.30
2019-02-07T07:44:40.079Z,-0.10
2019-02-07T07:47:36.084Z,0.60
2019-02-07T07:50:36.451Z,0.80
2019-02-07T07:53:27.268Z,1.00
2019-02-07T07:56:10.460Z,1.30
2019-02-07T07:59:13.657Z,0.60
2019-02-07T08:02:07.416Z,0.20
2019-02-07T08:04:54.426Z,0.30
2019-02-07T08:07:42.668Z,0.00
2019-02-07T08:10:31.756Z,0.20
2019-02-07T08:13:22.568Z,0.20
2019-02-07T08:16:10.958Z,0.40
2019-02-07T08:18:57.618Z,0.50
2019-02-07T08:21:57.937Z,0.60
2019-02-07T08:24:34.286Z,0.70
2019-02-07T08:27:21.186Z,0.90
2019-02-07T08:30:21.485Z,1.00
2019-02-07T08:33:04.667Z,0.90
2019-02-07T08:36:07.819Z,1.00
2019-02-07T08:38:50.004Z,1.50
2019-02-07T08:41:38.184Z,2.20
2019-02-07T08:44:29.021Z,2.00
2019-02-07T08:47:20.082Z,2.40
2019-02-07T08:49:58.661Z,2.10
2019-02-07T08:52:46.222Z,1.70
2019-02-07T08:55:40.544Z,1.80
2019-02-07T08:58:27.565Z,2.10
2019-02-07T09:01:14.421Z,2.40
2019-02-07T09:04:14.771Z,2.40
2019-02-07T09:07:08.987Z,1.90
2019-02-07T09:09:57.044Z,1.70
2019-02-07T09:12:57.838Z,1.60
2019-02-07T09:15:46.074Z,1.60
2019-02-07T09:18:49.146Z,1.70
2019-02-07T09:21:43.081Z,1.60
2019-02-07T09:24:33.876Z,1.70
2019-02-07T09:27:30.757Z,1.70
2019-02-07T09:30:27.832Z,1.70
2019-02-07T09:33:21.885Z,1.80
2019-02-07T09:36:15.754Z,1.70
2019-02-07T09:39:09.919Z,1.70
2019-02-07T09:41:56.580Z,1.90
2019-02-07T09:45:03.082Z,2.00
2019-02-07T09:48:02.940Z,2.00
2019-02-07T09:50:47.767Z,2.10
2019-02-07T09:53:30.200Z,2.10
2019-02-07T09:56:06.665Z,2.20
2019-02-07T09:58:47.844Z,2.50
2019-02-07T10:01:38.778Z,2.50
2019-02-07T10:04:26.006Z,2.60
2019-02-07T10:07:14.856Z,2.50
2019-02-07T10:09:55.598Z,2.60
2019-02-07T10:12:58.913Z,2.60
2019-02-07T10:15:53.080Z,2.60
2019-02-07T10:18:37.206Z,2.60
2019-02-07T10:21:24.075Z,2.60
2019-02-07T10:24:15.111Z,2.60
2019-02-07T10:27:05.475Z,2.60
2019-02-07T10:29:43.552Z,2.60
2019-02-07T10:32:40.925Z,2.50
2019-02-07T10:35:28.132Z,2.40
2019-02-07T10:38:16.114Z,2.40
2019-02-07T10:41:06.935Z,2.30
2019-02-07T10:44:01.105Z,2.30
2019-02-07T10:46:49.513Z,2.30
2019-02-07T10:49:40.593Z,2.20
2019-02-07T10:52:31.415Z,2.20
2019-02-07T10:55:19.519Z,2.20
2019-02-07T10:58:13.821Z,2.20
2019-02-07T11:01:00.509Z,2.20
2019-02-07T11:03:57.747Z,2.10
2019-02-07T11:06:52.721Z,2.00
2019-02-07T11:09:40.545Z,2.00
2019-02-07T11:12:40.983Z,2.10
2019-02-07T11:15:47.822Z,2.00
2019-02-07T11:18:35.897Z,2.00
2019-02-07T11:21:22.533Z,2.00
2019-02-07T11:24:09.479Z,2.10
2019-02-07T11:27:15.025Z,2.20
2019-02-07T11:30:11.593Z,2.10
2019-02-07T11:32:58.722Z,2.20
2019-02-07T11:35:47.253Z,2.20
2019-02-07T11:38:35.365Z,2.20
2019-02-07T11:41:23.005Z,2.30
2019-02-07T11:44:20.392Z,2.40
2019-02-07T11:47:09.072Z,2.50
2019-02-07T11:50:06.393Z,2.60
2019-02-07T11:52:50.491Z,2.70
2019-02-07T11:55:44.756Z,2.70
2019-02-07T11:58:45.061Z,2.60
2019-02-07T12:01:35.018Z,3.00
2019-02-07T12:04:35.105Z,2.90
2019-02-07T12:07:35.213Z,3.10
2019-02-07T12:10:33.604Z,3.60
2019-02-07T12:13:14.428Z,4.00
2019-02-07T12:15:56.592Z,4.40
2019-02-07T12:18:43.336Z,4.80
2019-02-07T12:21:31.336Z,4.90
2019-02-07T12:24:18.888Z,5.30
2019-02-07T12:27:05.985Z,5.20
2019-02-07T12:29:49.807Z,4.90
2019-02-07T12:32:26.542Z,4.50
2019-02-07T12:35:17.313Z,4.40
2019-02-07T12:38:21.029Z,4.30
2019-02-07T12:41:07.794Z,4.00
2019-02-07T12:44:04.673Z,3.90
2019-02-07T12:46:51.747Z,3.90
2019-02-07T12:49:56.108Z,3.90
2019-02-07T12:52:43.401Z,3.90
2019-02-07T12:55:52.008Z,4.00
2019-02-07T12:58:30.695Z,3.90
2019-02-07T13:01:17.525Z,3.90
2019-02-07T13:04:05.748Z,4.00
2019-02-07T13:07:02.480Z,4.00
2019-02-07T13:09:56.584Z,4.20
2019-02-07T13:13:02.902Z,4.30
2019-02-07T13:15:57.214Z,4.30
2019-02-07T13:18:35.053Z,4.30
2019-02-07T13:21:29.208Z,4.30
2019-02-07T13:24:20.401Z,4.40
2019-02-07T13:27:26.873Z,4.40
2019-02-07T13:30:33.552Z,4.60
2019-02-07T13:33:30.841Z,4.60
2019-02-07T13:36:25.686Z,4.70
2019-02-07T13:39:19.548Z,4.90
2019-02-07T13:42:06.968Z,5.40
2019-02-07T13:44:43.789Z,5.40
2019-02-07T13:47:34.609Z,5.20
2019-02-07T13:50:23.136Z,4.80
2019-02-07T13:53:14.026Z,4.80
2019-02-07T13:56:01.501Z,4.80
2019-02-07T13:58:40.655Z,4.70
2019-02-07T14:01:47.228Z,4.60
2019-02-07T14:04:35.341Z,4.70
2019-02-07T14:07:26.370Z,4.70
2019-02-07T14:10:14.357Z,5.00
2019-02-07T14:12:55.572Z,5.20
2019-02-07T14:15:42.461Z,5.10
2019-02-07T14:18:20.202Z,5.30
2019-02-07T14:21:07.089Z,5.60
2019-02-07T14:24:01.244Z,5.90
2019-02-07T14:26:42.263Z,6.50
2019-02-07T14:29:31.069Z,7.40
2019-02-07T14:32:28.052Z,8.60
2019-02-07T14:35:25.279Z,8.40
2019-02-07T14:38:16.417Z,8.40
2019-02-07T14:41:10.304Z,8.20
2019-02-07T14:43:52.677Z,8.10
2019-02-07T14:46:47.720Z,8.00
2019-02-07T14:49:16.936Z,8.00
2019-02-07T14:51:45.986Z,7.90
2019-02-07T14:54:15.355Z,8.00
2019-02-07T14:56:44.303Z,8.00
2019-02-07T14:59:13.409Z,7.90
2019-02-07T15:01:42.473Z,7.90
2019-02-07T15:04:11.509Z,7.90
2019-02-07T15:06:40.496Z,7.80
2019-02-07T15:09:15.670Z,7.80
2019-02-07T15:11:44.952Z,7.90
2019-02-07T15:14:13.980Z,7.80
2019-02-07T15:16:43.273Z,7.50
2019-02-07T15:19:12.225Z,7.80
2019-02-07T15:21:41.232Z,7.80
2019-02-07T15:24:10.537Z,7.90
2019-02-07T15:26:39.588Z,8.10
2019-02-07T15:29:08.712Z,8.00
2019-02-07T15:31:37.802Z,7.90
2019-02-07T15:34:09.114Z,7.90
2019-02-07T15:36:39.505Z,7.80
2019-02-07T15:39:12.702Z,7.80
2019-02-07T15:41:41.672Z,7.80
2019-02-07T15:44:10.748Z,7.60
2019-02-07T15:46:39.894Z,7.50
2019-02-07T15:49:09.083Z,7.60
2019-02-07T15:51:38.146Z,7.70
2019-02-07T15:54:07.569Z,7.70
2019-02-07T15:56:36.525Z,7.60
2019-02-07T15:59:23.462Z,7.60
2019-02-07T16:02:10.388Z,7.30
2019-02-07T16:04:42.213Z,6.80
2019-02-07T16:07:11.195Z,6.40
2019-02-07T16:09:40.213Z,6.20
2019-02-07T16:12:09.247Z,6.10
2019-02-07T16:14:38.389Z,6.10
2019-02-07T16:17:07.520Z,6.30
2019-02-07T16:19:36.797Z,6.40
2019-02-07T16:22:05.999Z,6.60
2019-02-07T16:24:35.041Z,6.90
2019-02-07T16:27:06.908Z,7.10
2019-02-07T16:29:36.269Z,7.20
2019-02-07T16:32:05.248Z,7.20
2019-02-07T16:34:34.591Z,7.20
2019-02-07T16:37:03.675Z,7.20
2019-02-07T16:39:34.285Z,7.30
2019-02-07T16:42:06.355Z,7.30
2019-02-07T16:44:34.010Z,7.30
2019-02-07T16:47:03.071Z,7.30
2019-02-07T16:49:32.190Z,7.20
2019-02-07T16:52:01.237Z,7.20
2019-02-07T16:54:30.408Z,7.20
2019-02-07T16:56:59.558Z,7.20
2019-02-07T16:59:28.990Z,7.10
2019-02-07T17:01:58.076Z,7.10
2019-02-07T17:04:27.073Z,7.00
2019-02-07T17:06:56.151Z,7.10
2019-02-07T17:09:32.158Z,7.00
2019-02-07T17:12:01.284Z,7.00
2019-02-07T17:14:30.835Z,7.00
2019-02-07T17:16:59.934Z,6.70
2019-02-07T17:19:28.906Z,6.80
2019-02-07T17:21:58.072Z,6.90
2019-02-07T17:24:27.083Z,7.00
2019-02-07T17:26:56.238Z,6.90
2019-02-07T17:29:25.629Z,6.90
2019-02-07T17:31:54.824Z,6.90
2019-02-07T17:34:23.996Z,7.00
2019-02-07T17:36:53.132Z,6.90
2019-02-07T17:39:22.240Z,6.90
2019-02-07T17:41:51.273Z,6.90
2019-02-07T17:44:20.629Z,6.90
2019-02-07T17:46:49.652Z,6.90
2019-02-07T17:49:18.681Z,6.90
2019-02-07T17:51:47.679Z,6.90
2019-02-07T17:54:18.976Z,6.90
2019-02-07T17:56:47.429Z,6.90
2019-02-07T17:59:16.890Z,6.90
2019-02-07T18:01:45.932Z,6.90
2019-02-07T18:04:15.136Z,6.90
2019-02-07T18:06:44.285Z,6.90
2019-02-07T18:09:13.354Z,6.90
2019-02-07T18:11:42.459Z,6.90
2019-02-07T18:14:11.526Z,6.90
2019-02-07T18:16:40.506Z,6.80
2019-02-07T18:19:09.576Z,6.80
2019-02-07T18:21:38.676Z,6.70
2019-02-07T18:24:07.790Z,6.70
2019-02-07T18:26:36.793Z,6.70
2019-02-07T18:29:05.855Z,6.70
2019-02-07T18:31:35.386Z,6.70
2019-02-07T18:34:04.615Z,6.60
2019-02-07T18:36:33.886Z,6.60
2019-02-07T18:39:03.326Z,6.40
2019-02-07T18:41:32.434Z,6.50
2019-02-07T18:44:01.553Z,6.40
2019-02-07T18:46:31.044Z,6.40
2019-02-07T18:49:01.234Z,6.30
2019-02-07T18:51:30.438Z,6.20
2019-02-07T18:53:59.973Z,6.20
2019-02-07T18:56:30.386Z,6.10
2019-02-07T18:58:59.475Z,6.00
2019-02-07T19:01:28.788Z,6.00
2019-02-07T19:03:57.865Z,6.00
2019-02-07T19:06:26.949Z,6.00
2019-02-07T19:08:56.007Z,6.00
2019-02-07T19:11:25.065Z,5.90
2019-02-07T19:13:54.044Z,5.90
2019-02-07T19:16:24.858Z,5.90
2019-02-07T19:18:53.776Z,5.90
2019-02-07T19:21:22.971Z,5.70
2019-02-07T19:23:52.073Z,5.60
2019-02-07T19:26:21.185Z,5.50
2019-02-07T19:28:51.248Z,5.50
2019-02-07T19:31:20.447Z,5.40
2019-02-07T19:33:49.622Z,5.50
2019-02-07T19:36:18.695Z,5.40
2019-02-07T19:38:47.838Z,5.50
2019-02-07T19:41:16.848Z,5.60
2019-02-07T19:43:45.934Z,5.70
2019-02-07T19:46:15.043Z,5.70
2019-02-07T19:48:44.542Z,5.80
2019-02-07T19:51:14.660Z,5.70
2019-02-07T19:53:43.747Z,5.80
2019-02-07T19:56:12.808Z,5.70
2019-02-07T19:58:41.985Z,5.80
2019-02-07T20:01:10.973Z,5.70
2019-02-07T20:03:40.458Z,5.40
2019-02-07T20:06:09.545Z,5.40
2019-02-07T20:08:38.663Z,5.50
2019-02-07T20:11:07.843Z,5.60
2019-02-07T20:13:36.960Z,5.60
2019-02-07T20:16:06.037Z,5.60
2019-02-07T20:18:35.102Z,5.60
2019-02-07T20:21:04.532Z,5.50
2019-02-07T20:23:33.709Z,5.50
2019-02-07T20:26:03.058Z,5.40
2019-02-07T20:28:32.300Z,5.40
2019-02-07T20:31:01.496Z,5.50
2019-02-07T20:33:30.481Z,5.50
2019-02-07T20:35:59.617Z,5.50
2019-02-07T20:38:29.138Z,5.30
2019-02-07T20:40:58.200Z,5.30
2019-02-07T20:43:27.296Z,5.30
2019-02-07T20:45:56.370Z,5.30
2019-02-07T20:48:25.492Z,5.30
2019-02-07T20:50:54.597Z,5.10
2019-02-07T20:53:23.730Z,5.20
2019-02-07T20:55:52.788Z,5.20
2019-02-07T20:58:21.971Z,5.20
2019-02-07T21:00:50.953Z,5.10
2019-02-07T21:03:19.985Z,5.00
2019-02-07T21:05:48.985Z,5.10
2019-02-07T21:08:18.117Z,5.00
2019-02-07T21:10:47.577Z,5.00
2019-02-07T21:13:16.834Z,4.80
2019-02-07T21:15:46.035Z,4.80
2019-02-07T21:18:15.028Z,4.70
2019-02-07T21:20:44.025Z,4.60
2019-02-07T21:23:13.214Z,4.60
2019-02-07T21:25:47.681Z,4.60
2019-02-07T21:28:16.771Z,4.70
2019-02-07T21:30:45.932Z,4.80
2019-02-07T21:33:15.072Z,4.80
2019-02-07T21:35:44.137Z,4.80
2019-02-07T21:38:15.985Z,4.70
2019-02-07T21:40:45.173Z,4.80
2019-02-07T21:43:14.622Z,4.70
2019-02-07T21:45:43.696Z,4.80
2019-02-07T21:48:12.858Z,4.80
2019-02-07T21:50:41.853Z,4.80
2019-02-07T21:53:10.960Z,4.80
2019-02-07T21:55:40.114Z,4.70
2019-02-07T21:58:09.453Z,4.70
2019-02-07T22:00:41.380Z,4.70
2019-02-07T22:03:12.580Z,4.70
2019-02-07T22:05:41.585Z,4.70
2019-02-07T22:08:10.980Z,4.60
2019-02-07T22:10:40.028Z,4.70
2019-02-07T22:13:09.509Z,4.70
2019-02-07T22:15:38.565Z,4.80
2019-02-07T22:18:09.266Z,4.80
2019-02-07T22:20:38.426Z,4.80
2019-02-07T22:23:07.457Z,4.80
2019-02-07T22:25:36.436Z,4.80
2019-02-07T22:28:05.950Z,4.70
2019-02-07T22:30:35.175Z,4.60
2019-02-07T22:33:04.269Z,4.70
2019-02-07T22:35:33.243Z,4.60
2019-02-07T22:38:02.452Z,4.60
2019-02-07T22:40:31.512Z,4.50
2019-02-07T22:43:01.164Z,4.70
2019-02-07T22:45:30.236Z,4.70
2019-02-07T22:47:59.313Z,4.60
2019-02-07T22:50:29.312Z,4.70
2019-02-07T22:52:58.733Z,4.70
2019-02-07T22:55:27.701Z,4.80
2019-02-07T22:57:56.632Z,4.80
2019-02-07T23:01:06.985Z,4.90
2019-02-07T23:03:36.367Z,4.90
2019-02-07T23:06:05.800Z,4.90
2019-02-07T23:08:34.949Z,4.90
2019-02-07T23:11:03.926Z,5.00
2019-02-07T23:13:32.948Z,5.00
2019-02-07T23:16:01.930Z,4.90
2019-02-07T23:18:30.929Z,4.90
2019-02-07T23:21:00.002Z,5.00
2019-02-07T23:23:28.980Z,5.10
2019-02-07T23:25:58.112Z,5.10
2019-02-07T23:28:27.038Z,5.10
2019-02-07T23:30:56.026Z,5.10
2019-02-07T23:33:25.055Z,5.10
2019-02-07T23:35:54.085Z,5.10
2019-02-07T23:38:23.349Z,5.10
2019-02-07T23:40:52.500Z,5.10
2019-02-07T23:43:21.636Z,5.20
2019-02-07T23:45:50.912Z,5.20
2019-02-07T23:48:20.039Z,5.20
2019-02-07T23:50:49.032Z,5.30
2019-02-07T23:53:19.783Z,5.30
2019-02-07T23:55:48.860Z,5.30
2019-02-07T23:58:17.911Z,5.30
